| time (UTC) | temp C | wind direction | speed KPH | gust KPH | rain 1hr cm | rain 24hr cm | rain mn cm | humidity % | barometer mb |
| 20260906231537 | 17 | 360 | 11.3 | 17.7 | 0.00 | 0.69 | 0.46 | 78 | 1016.9 |
| 20260906230036 | 17 | 311 | 14.5 | 20.9 | 0.00 | 0.69 | 0.46 | 79 | 1017.1 |
| 20260906224535 | 16 | 298 | 12.9 | 24.1 | 0.00 | 0.69 | 0.46 | 82 | 1017.3 |
| 20260906223051 | 16 | 326 | 12.9 | 22.5 | 0.00 | 0.69 | 0.46 | 81 | 1017.4 |
| 20260906221535 | 16 | 306 | 11.3 | 19.3 | 0.00 | 0.69 | 0.46 | 80 | 1017.5 |
| 20260906220039 | 16 | 321 | 9.7 | 16.1 | 0.00 | 0.69 | 0.46 | 79 | 1017.5 |
| 20260906214547 | 16 | 243 | 9.7 | 14.5 | 0.00 | 0.69 | 0.46 | 80 | 1017.4 |
| 20260906213034 | 17 | 215 | 4.8 | 11.3 | 0.00 | 0.69 | 0.46 | 78 | 1017.5 |
| 20260906211542 | 17 | 54 | 0.0 | 4.8 | 0.00 | 0.69 | 0.46 | 78 | 1017.3 |
| 20260906210059 | 16 | 300 | 4.8 | 16.1 | 0.00 | 0.69 | 0.46 | 80 | 1017.2 |
| 20260906203039 | 15 | 311 | 17.7 | 24.1 | 0.00 | 0.69 | 0.46 | 84 | 1017.4 |
| 20260906201546 | 15 | 332 | 14.5 | 24.1 | 0.00 | 0.69 | 0.46 | 84 | 1017.5 |
| 20260906200035 | 16 | 350 | 16.1 | 25.7 | 0.00 | 0.69 | 0.46 | 82 | 1017.5 |
| 20260906194537 | 16 | 315 | 9.7 | 17.7 | 0.00 | 0.69 | 0.46 | 80 | 1017.6 |
| 20260906193033 | 16 | 325 | 17.7 | 25.7 | 0.00 | 0.69 | 0.46 | 77 | 1017.6 |
| 20260906191539 | 17 | 133 | 1.6 | 6.4 | 0.00 | 0.69 | 0.46 | 74 | 1017.5 |
| 20260906184536 | 17 | 70 | 9.7 | 16.1 | 0.00 | 0.69 | 0.46 | 78 | 1017.3 |
| 20260906183036 | 17 | 331 | 12.9 | 19.3 | 0.00 | 0.69 | 0.46 | 78 | 1017.2 |
| 20260906181539 | 16 | 60 | 8.0 | 16.1 | 0.00 | 0.69 | 0.46 | 85 | 1017.6 |
| 20260906180052 | 15 | 12 | 12.9 | 19.3 | 0.03 | 0.69 | 0.46 | 87 | 1018.3 |
| 20260906174549 | 13 | 352 | 17.7 | 30.6 | 0.03 | 0.69 | 0.46 | 88 | 1018.6 |
| 20260906173036 | 13 | 17 | 19.3 | 46.7 | 0.03 | 0.69 | 0.46 | 92 | 1018.5 |
| 20260906171536 | 12 | 355 | 25.7 | 40.2 | 0.03 | 0.69 | 0.46 | 92 | 1019.5 |
| 20260906170033 | 12 | 317 | 20.9 | 35.4 | 0.00 | 0.66 | 0.43 | 89 | 1020.0 |
| 20260906164535 | 13 | 295 | 14.5 | 20.9 | 0.00 | 0.66 | 0.43 | 89 | 1019.9 |
| 20260906163035 | 13 | 5 | 8.0 | 17.7 | 0.00 | 0.66 | 0.43 | 91 | 1019.6 |
| 20260906161535 | 12 | 22 | 11.3 | 27.4 | 0.00 | 0.66 | 0.43 | 91 | 1019.4 |
| 20260906154535 | 12 | 333 | 27.4 | 38.6 | 0.00 | 0.66 | 0.43 | 92 | 1019.6 |
| 20260906153048 | 12 | 336 | 24.1 | 35.4 | 0.23 | 0.66 | 0.43 | 92 | 1020.1 |
| 20260906151549 | 11 | 307 | 14.5 | 29.0 | 0.38 | 0.66 | 0.43 | 94 | 1020.2 |
| 20260906150036 | 11 | 306 | 29.0 | 35.4 | 0.43 | 0.66 | 0.43 | 94 | 1020.5 |
| 20260906144541 | 11 | 296 | 22.5 | 33.8 | 0.43 | 0.69 | 0.43 | 96 | 1020.8 |
| 20260906143042 | 11 | 254 | 25.7 | 48.3 | 0.20 | 0.46 | 0.20 | 95 | 1021.0 |
| 20260906141533 | 12 | 268 | 27.4 | 41.8 | 0.03 | 0.28 | 0.03 | 90 | 1020.6 |
| 20260906140035 | 15 | 55 | 12.9 | 29.0 | 0.00 | 0.25 | 0.00 | 84 | 1019.9 |
| 20260906134544 | 15 | 59 | 17.7 | 24.1 | 0.00 | 0.38 | 0.00 | 85 | 1019.6 |
| 20260906133045 | 15 | 57 | 12.9 | 24.1 | 0.00 | 0.38 | 0.00 | 84 | 1019.7 |
| 20260906131534 | 15 | 66 | 9.7 | 16.1 | 0.00 | 0.38 | 0.00 | 83 | 1019.5 |
| 20260906130034 | 15 | 86 | 6.4 | 12.9 | 0.00 | 0.38 | 0.00 | 82 | 1019.9 |
| 20260906124533 | 15 | 277 | 3.2 | 19.3 | 0.00 | 0.38 | 0.00 | 79 | 1020.2 |
| 20260906123050 | 15 | 352 | 17.7 | 27.4 | 0.00 | 0.38 | 0.00 | 79 | 1019.5 |
| 20260906121541 | 13 | 320 | 14.5 | 35.4 | 0.00 | 0.38 | 0.00 | 88 | 1020.3 |
| 20260906120031 | 14 | 300 | 9.7 | 35.4 | 0.00 | 0.38 | 0.00 | 85 | 1020.6 |
| 20260906114536 | 14 | 80 | 19.3 | 32.2 | 0.00 | 0.38 | 0.00 | 83 | 1019.9 |
| 20260906113035 | 13 | 49 | 11.3 | 22.5 | 0.00 | 0.38 | 0.00 | 84 | 1020.3 |
| 20260906111535 | 13 | 63 | 16.1 | 29.0 | 0.00 | 0.38 | 0.00 | 78 | 1020.0 |
| 20260906110031 | 13 | 61 | 6.4 | 16.1 | 0.00 | 0.38 | 0.00 | 79 | 1019.8 |
| 20260906103038 | 13 | 0 | 0.0 | 4.8 | 0.00 | 0.38 | 0.00 | 85 | 1020.1 |
| 20260906101535 | 13 | 40 | 1.6 | 9.7 | 0.00 | 0.38 | 0.00 | 87 | 1020.2 |
| 20260906100033 | 13 | 271 | 3.2 | 6.4 | 0.00 | 0.38 | 0.00 | 88 | 1020.2 |
| 20260906093037 | 12 | 331 | 19.3 | 32.2 | 0.00 | 0.38 | 0.00 | 91 | 1020.3 |
| 20260906091535 | 12 | 329 | 32.2 | 41.8 | 0.00 | 0.38 | 0.00 | 92 | 1020.8 |
| 20260906090055 | 12 | 306 | 40.2 | 49.9 | 0.00 | 0.38 | 0.00 | 93 | 1021.4 |
| 20260906084534 | 11 | 324 | 11.3 | 33.8 | 0.00 | 0.38 | 0.00 | 97 | 1022.1 |
| 20260906083038 | 11 | 226 | 14.5 | 27.4 | 0.00 | 0.38 | 0.00 | 95 | 1022.2 |
| 20260906081531 | 12 | 346 | 27.4 | 45.1 | 0.00 | 0.38 | 0.00 | 94 | 1020.3 |
| 20260906080034 | 12 | 315 | 35.4 | 51.5 | 0.00 | 0.38 | 0.00 | 94 | 1020.5 |
| 20260906074534 | 12 | 318 | 19.3 | 25.7 | 0.00 | 0.38 | 0.00 | 91 | 1021.0 |
| 20260906073040 | 12 | 5 | 25.7 | 40.2 | 0.00 | 0.38 | 0.00 | 92 | 1020.6 |
| 20260906070038 | 12 | 325 | 30.6 | 40.2 | 0.00 | 0.38 | 0.00 | 93 | 1021.6 |
| 20260906064534 | 12 | 323 | 35.4 | 46.7 | 0.00 | 0.38 | 0.00 | 93 | 1021.8 |
| 20260906063045 | 12 | 304 | 40.2 | 48.3 | 0.00 | 0.38 | 0.00 | 93 | 1022.0 |
| 20260906061536 | 12 | 299 | 37.0 | 46.7 | 0.00 | 0.38 | 0.00 | 92 | 1022.3 |
| 20260906060033 | 12 | 335 | 27.4 | 37.0 | 0.00 | 0.38 | 0.00 | 90 | 1021.9 |
| 20260906054536 | 12 | 346 | 27.4 | 37.0 | 0.08 | 0.38 | 0.38 | 88 | 1021.6 |
| 20260906053036 | 12 | 338 | 27.4 | 37.0 | 0.08 | 0.38 | 0.38 | 89 | 1021.8 |
| 20260906051552 | 12 | 5 | 27.4 | 48.3 | 0.08 | 0.38 | 0.38 | 87 | 1021.8 |
| 20260906050040 | 12 | 309 | 32.2 | 45.1 | 0.08 | 0.38 | 0.38 | 88 | 1021.7 |
| 20260906044541 | 13 | 314 | 14.5 | 22.5 | 0.03 | 0.30 | 0.30 | 86 | 1022.5 |
| 20260906043043 | 13 | 350 | 19.3 | 29.0 | 0.10 | 0.30 | 0.30 | 84 | 1021.2 |
| 20260906041536 | 13 | 13 | 24.1 | 32.2 | 0.15 | 0.30 | 0.30 | 86 | 1021.1 |
| 20260906040038 | 13 | 337 | 25.7 | 43.5 | 0.15 | 0.30 | 0.30 | 86 | 1021.2 |
| 20260906034539 | 13 | 330 | 38.6 | 48.3 | 0.13 | 0.28 | 0.28 | 87 | 1021.0 |
| 20260906033035 | 13 | 350 | 29.0 | 33.8 | 0.05 | 0.20 | 0.20 | 82 | 1022.7 |
| 20260906031542 | 15 | 333 | 27.4 | 41.8 | 0.00 | 0.15 | 0.15 | 75 | 1021.6 |
| 20260906030032 | 15 | 355 | 30.6 | 45.1 | 0.00 | 0.15 | 0.15 | 75 | 1020.7 |
| 20260906024534 | 15 | 360 | 30.6 | 40.2 | 0.00 | 0.15 | 0.15 | 74 | 1019.9 |
| 20260906023034 | 15 | 5 | 29.0 | 43.5 | 0.00 | 0.15 | 0.15 | 74 | 1019.6 |
| 20260906021534 | 15 | 327 | 29.0 | 41.8 | 0.00 | 0.15 | 0.15 | 73 | 1019.8 |
| 20260906020034 | 15 | 315 | 29.0 | 37.0 | 0.00 | 0.15 | 0.15 | 72 | 1019.7 |
| 20260906014536 | 16 | 346 | 24.1 | 33.8 | 0.00 | 0.15 | 0.15 | 71 | 1019.9 |
| 20260906013052 | 16 | 338 | 24.1 | 32.2 | 0.00 | 0.15 | 0.15 | 70 | 1019.9 |
| 20260906011545 | 16 | 333 | 22.5 | 35.4 | 0.00 | 0.15 | 0.15 | 70 | 1019.9 |
| 20260906010036 | 16 | 350 | 24.1 | 35.4 | 0.00 | 0.15 | 0.15 | 69 | 1020.0 |
| 20260906004537 | 16 | 330 | 29.0 | 41.8 | 0.00 | 0.15 | 0.15 | 68 | 1020.0 |
| 20260906003036 | 17 | 337 | 32.2 | 43.5 | 0.00 | 0.15 | 0.15 | 68 | 1020.0 |
| 20260906001537 | 18 | 333 | 29.0 | 40.2 | 0.00 | 0.15 | 0.15 | 66 | 1020.2 |
| 20260906000034 | 18 | 312 | 27.4 | 37.0 | 0.00 | 0.15 | 0.15 | 65 | 1020.3 |
| 20260905234532 | 18 | 317 | 29.0 | 35.4 | 0.00 | 0.15 | 0.15 | 63 | 1020.6 |
| 20260905233041 | 18 | 345 | 25.7 | 32.2 | 0.00 | 0.15 | 0.15 | 62 | 1020.5 |